createdAt,value
2023-03-27T00:00:16.596Z,9.29
2023-03-27T00:02:48.748Z,9.22
2023-03-27T00:05:20.390Z,8.54
2023-03-27T00:07:49.540Z,8.70
2023-03-27T00:10:18.893Z,8.69
2023-03-27T00:12:47.353Z,8.20
2023-03-27T00:15:17.496Z,8.59
2023-03-27T00:17:51.720Z,8.58
2023-03-27T00:20:23.294Z,8.84
2023-03-27T00:22:55.480Z,9.00
2023-03-27T00:25:26.788Z,8.92
2023-03-27T00:27:56.362Z,9.15
2023-03-27T00:30:26.269Z,9.27
2023-03-27T00:32:56.467Z,9.19
2023-03-27T00:35:26.584Z,9.31
2023-03-27T00:37:55.972Z,9.37
2023-03-27T00:40:25.438Z,9.41
2023-03-27T00:42:57.682Z,9.49
2023-03-27T00:45:30.227Z,9.53
2023-03-27T00:48:04.732Z,9.60
2023-03-27T00:50:39.072Z,9.65
2023-03-27T00:53:11.473Z,9.26
2023-03-27T00:55:43.657Z,9.13
2023-03-27T00:58:18.915Z,8.73
2023-03-27T01:00:50.745Z,8.56
2023-03-27T01:03:21.676Z,8.10
2023-03-27T01:05:51.440Z,8.32
2023-03-27T01:08:20.389Z,8.41
2023-03-27T01:11:10.680Z,8.52
2023-03-27T01:14:03.770Z,8.44
2023-03-27T01:16:45.937Z,8.43
2023-03-27T01:20:02.636Z,8.49
2023-03-27T01:23:11.497Z,8.60
2023-03-27T01:26:15.997Z,8.52
2023-03-27T01:28:54.803Z,8.57
2023-03-27T01:31:41.946Z,8.30
2023-03-27T01:34:45.006Z,8.06
2023-03-27T01:38:03.786Z,7.67
2023-03-27T01:40:37.592Z,7.97
2023-03-27T01:43:11.320Z,8.17
2023-03-27T01:45:47.065Z,8.21
2023-03-27T01:48:20.337Z,8.06
2023-03-27T01:50:53.260Z,8.23
2023-03-27T01:53:27.021Z,8.06
2023-03-27T01:56:03.810Z,7.95
2023-03-27T01:58:40.278Z,8.05
2023-03-27T02:01:11.417Z,8.08
2023-03-27T02:03:43.815Z,8.06
2023-03-27T02:06:18.651Z,8.21
2023-03-27T02:08:54.560Z,8.19
2023-03-27T02:11:28.033Z,8.08
2023-03-27T02:14:01.624Z,7.95
2023-03-27T02:16:35.584Z,7.79
2023-03-27T02:19:12.350Z,7.92
2023-03-27T02:21:40.722Z,7.90
2023-03-27T02:24:09.282Z,7.91
2023-03-27T02:26:39.621Z,7.99
2023-03-27T02:29:45.709Z,7.90
2023-03-27T02:32:32.473Z,7.92
2023-03-27T02:35:12.623Z,7.13
2023-03-27T02:37:55.261Z,7.86
2023-03-27T02:40:57.128Z,7.90
2023-03-27T02:43:56.101Z,7.83
2023-03-27T02:46:43.753Z,7.84
2023-03-27T02:49:18.540Z,7.74
2023-03-27T02:51:53.784Z,7.81
2023-03-27T02:54:26.964Z,7.77
2023-03-27T02:57:00.220Z,7.58
2023-03-27T02:59:45.524Z,7.55
2023-03-27T03:02:19.999Z,7.45
2023-03-27T03:05:05.518Z,7.37
2023-03-27T03:07:40.191Z,7.39
2023-03-27T03:10:11.613Z,7.38
2023-03-27T03:12:40.252Z,7.37
2023-03-27T03:15:11.190Z,7.33
2023-03-27T03:17:39.760Z,7.24
2023-03-27T03:20:10.529Z,7.36
2023-03-27T03:22:40.016Z,7.51
2023-03-27T03:25:10.681Z,7.52
2023-03-27T03:27:41.349Z,7.53
2023-03-27T03:30:17.284Z,7.61
2023-03-27T03:33:06.369Z,7.54
2023-03-27T03:35:34.862Z,7.62
2023-03-27T03:38:08.232Z,7.71
2023-03-27T03:40:45.828Z,7.87
2023-03-27T03:43:14.227Z,7.85
2023-03-27T03:45:43.948Z,7.83
2023-03-27T03:48:12.392Z,7.79
2023-03-27T03:50:40.732Z,7.89
2023-03-27T03:53:09.124Z,7.89
2023-03-27T03:55:38.343Z,7.93
2023-03-27T03:58:08.012Z,7.92
2023-03-27T04:00:39.349Z,7.89
2023-03-27T04:03:15.743Z,7.90
2023-03-27T04:05:45.511Z,7.97
2023-03-27T04:08:13.868Z,8.02
2023-03-27T04:10:59.981Z,8.14
2023-03-27T04:14:03.843Z,7.99
2023-03-27T04:16:42.863Z,7.79
2023-03-27T04:19:26.545Z,7.78
2023-03-27T04:22:02.453Z,7.73
2023-03-27T04:24:33.829Z,7.84
2023-03-27T04:27:02.283Z,7.98
2023-03-27T04:29:43.432Z,7.76
2023-03-27T04:32:31.256Z,7.07
2023-03-27T04:35:33.479Z,6.83
2023-03-27T04:38:14.747Z,6.81
2023-03-27T04:40:49.414Z,7.15
2023-03-27T04:43:19.052Z,7.23
2023-03-27T04:45:48.400Z,6.97
2023-03-27T04:48:17.620Z,7.09
2023-03-27T04:50:52.443Z,7.06
2023-03-27T04:53:35.904Z,6.93
2023-03-27T04:56:05.477Z,7.19
2023-03-27T04:58:37.738Z,7.06
2023-03-27T05:01:12.685Z,7.42
2023-03-27T05:04:02.491Z,7.65
2023-03-27T05:06:55.994Z,7.73
2023-03-27T05:09:25.315Z,7.61
2023-03-27T05:11:53.982Z,7.96
2023-03-27T05:14:24.539Z,8.03
2023-03-27T05:16:54.300Z,8.15
2023-03-27T05:19:25.537Z,7.90
2023-03-27T05:22:01.377Z,8.23
2023-03-27T05:24:29.984Z,8.26
2023-03-27T05:26:58.355Z,8.27
2023-03-27T05:29:26.874Z,8.15
2023-03-27T05:32:04.534Z,8.17
2023-03-27T05:34:46.099Z,8.15
2023-03-27T05:37:19.255Z,8.31
2023-03-27T05:40:20.976Z,8.18
2023-03-27T05:42:51.232Z,7.76
2023-03-27T05:45:20.084Z,8.17
2023-03-27T05:47:51.932Z,8.10
2023-03-27T05:50:23.191Z,7.77
2023-03-27T05:52:58.522Z,7.89
2023-03-27T05:55:33.751Z,7.73
2023-03-27T05:58:02.639Z,7.93
2023-03-27T06:00:34.156Z,7.52
2023-03-27T06:03:04.436Z,7.71
2023-03-27T06:05:52.420Z,7.84
2023-03-27T06:08:22.662Z,7.99
2023-03-27T06:10:51.162Z,8.06
2023-03-27T06:13:25.748Z,7.73
2023-03-27T06:16:00.389Z,8.10
2023-03-27T06:18:44.139Z,8.19
2023-03-27T06:21:15.381Z,8.02
2023-03-27T06:23:45.850Z,7.99
2023-03-27T06:26:16.976Z,8.01
2023-03-27T06:28:45.626Z,8.19
2023-03-27T06:31:17.584Z,7.95
2023-03-27T06:34:08.706Z,8.46
2023-03-27T06:37:04.731Z,8.34
2023-03-27T06:39:44.234Z,9.01
2023-03-27T06:42:12.602Z,9.19
2023-03-27T06:45:00.939Z,9.45
2023-03-27T06:48:17.947Z,9.04
2023-03-27T06:50:52.842Z,9.09
2023-03-27T06:55:56.436Z,8.86
2023-03-27T06:58:27.734Z,8.73
2023-03-27T07:00:57.025Z,8.86
2023-03-27T07:03:51.626Z,8.40
2023-03-27T07:06:39.635Z,8.69
2023-03-27T07:09:11.982Z,8.75
2023-03-27T07:11:41.810Z,8.62
2023-03-27T07:14:11.424Z,8.88
2023-03-27T07:16:39.847Z,8.86
2023-03-27T07:19:09.565Z,9.02
2023-03-27T07:21:42.218Z,8.98
2023-03-27T07:24:12.814Z,8.67
2023-03-27T07:26:42.627Z,8.51
2023-03-27T07:29:23.421Z,8.66
2023-03-27T07:31:58.891Z,8.68
2023-03-27T07:34:41.140Z,8.98
2023-03-27T07:37:12.434Z,9.48
2023-03-27T07:39:51.271Z,9.32
2023-03-27T07:42:21.726Z,9.47
2023-03-27T07:45:01.808Z,9.81
2023-03-27T07:47:32.213Z,10.29
2023-03-27T07:50:00.908Z,10.52
2023-03-27T07:52:29.487Z,10.35
2023-03-27T07:55:00.865Z,10.49
2023-03-27T07:57:59.175Z,10.74
2023-03-27T08:00:33.964Z,10.97
2023-03-27T08:03:14.061Z,11.29
2023-03-27T08:05:57.792Z,10.99
2023-03-27T08:08:29.423Z,10.88
2023-03-27T08:10:59.636Z,11.19
2023-03-27T08:13:33.371Z,11.11
2023-03-27T08:16:08.725Z,10.86
2023-03-27T08:18:38.278Z,10.81
2023-03-27T08:21:10.441Z,10.94
2023-03-27T08:23:41.220Z,11.28
2023-03-27T08:26:10.525Z,11.23
2023-03-27T08:29:01.102Z,10.51
2023-03-27T08:31:32.249Z,10.10
2023-03-27T08:34:02.651Z,9.82
2023-03-27T08:36:48.276Z,10.44
2023-03-27T08:39:17.722Z,9.95
2023-03-27T08:42:06.261Z,10.16
2023-03-27T08:44:38.665Z,10.28
2023-03-27T08:47:22.343Z,10.35
2023-03-27T08:50:00.298Z,10.47
2023-03-27T08:52:47.743Z,10.61
2023-03-27T08:55:38.509Z,10.42
2023-03-27T08:58:21.458Z,10.40
2023-03-27T09:01:03.483Z,10.23
2023-03-27T09:03:37.041Z,10.34
2023-03-27T09:06:12.479Z,10.00
2023-03-27T09:08:56.567Z,9.97
2023-03-27T09:11:37.674Z,10.79
2023-03-27T09:14:20.932Z,10.75
2023-03-27T09:16:52.785Z,10.82
2023-03-27T09:19:38.355Z,10.31
2023-03-27T09:22:13.700Z,10.49
2023-03-27T09:25:10.984Z,10.47
2023-03-27T09:28:16.525Z,9.97
2023-03-27T09:30:51.116Z,10.28
2023-03-27T09:33:29.371Z,10.67
2023-03-27T09:35:59.648Z,10.06
2023-03-27T09:38:33.231Z,10.44
2023-03-27T09:41:09.020Z,10.25
2023-03-27T09:43:43.972Z,10.07
2023-03-27T09:46:18.101Z,9.61
2023-03-27T09:49:00.502Z,10.04
2023-03-27T09:51:42.030Z,9.88
2023-03-27T09:54:54.403Z,9.65
2023-03-27T09:57:38.633Z,9.87
2023-03-27T10:00:26.996Z,10.06
2023-03-27T10:03:03.674Z,10.21
2023-03-27T10:05:35.428Z,10.62
2023-03-27T10:08:40.755Z,10.27
2023-03-27T10:11:19.769Z,10.96
2023-03-27T10:13:55.624Z,10.61
2023-03-27T10:16:27.851Z,10.45
2023-03-27T10:19:02.270Z,10.43
2023-03-27T10:21:42.608Z,9.76
2023-03-27T10:24:22.642Z,9.44
2023-03-27T10:27:21.468Z,9.30
2023-03-27T10:30:29.557Z,9.76
2023-03-27T10:33:31.821Z,10.31
2023-03-27T10:36:20.374Z,10.69
2023-03-27T10:38:57.339Z,10.23
2023-03-27T10:41:37.546Z,10.23
2023-03-27T10:44:17.658Z,10.73
2023-03-27T10:46:52.108Z,11.08
2023-03-27T10:49:31.760Z,11.20
2023-03-27T10:52:16.431Z,11.13
2023-03-27T10:55:30.339Z,11.35
2023-03-27T10:58:05.293Z,11.57
2023-03-27T11:00:43.455Z,11.25
2023-03-27T11:03:21.734Z,11.09
2023-03-27T11:05:58.358Z,10.44
2023-03-27T11:08:44.138Z,10.01
2023-03-27T11:11:20.370Z,10.12
2023-03-27T11:13:52.184Z,10.35
2023-03-27T11:16:27.459Z,9.94
2023-03-27T11:19:31.454Z,10.50
2023-03-27T11:22:24.702Z,10.47
2023-03-27T11:24:58.699Z,9.92
2023-03-27T11:27:35.664Z,9.83
2023-03-27T11:30:37.253Z,8.98
2023-03-27T11:33:40.170Z,9.87
2023-03-27T11:36:34.230Z,10.04
2023-03-27T11:39:20.964Z,10.04
2023-03-27T11:41:54.549Z,10.69
2023-03-27T11:44:26.615Z,10.78
2023-03-27T11:47:28.489Z,10.51
2023-03-27T11:50:37.189Z,10.57
2023-03-27T11:53:23.528Z,10.65
2023-03-27T11:56:32.409Z,10.66
2023-03-27T11:59:46.576Z,10.69
2023-03-27T12:02:55.775Z,10.37
2023-03-27T12:05:43.174Z,10.46
2023-03-27T12:08:22.732Z,10.80
2023-03-27T12:10:54.019Z,10.53
2023-03-27T12:14:01.838Z,10.72
2023-03-27T12:17:12.043Z,10.98
2023-03-27T12:20:51.806Z,11.48
2023-03-27T12:23:52.712Z,11.17
2023-03-27T12:27:24.058Z,11.37
2023-03-27T12:30:21.623Z,10.98
2023-03-27T12:33:11.868Z,10.71
2023-03-27T12:35:47.108Z,10.70
2023-03-27T12:38:28.970Z,10.00
2023-03-27T12:41:06.883Z,10.19
2023-03-27T12:43:58.433Z,10.06
2023-03-27T12:46:39.936Z,9.91
2023-03-27T12:49:47.443Z,9.88
2023-03-27T12:52:28.545Z,9.90
2023-03-27T12:55:32.328Z,10.15
2023-03-27T12:58:03.916Z,9.84
2023-03-27T13:01:00.333Z,9.64
2023-03-27T13:04:51.372Z,9.93
2023-03-27T13:07:26.615Z,9.83
2023-03-27T13:10:27.702Z,10.14
2023-03-27T13:13:29.580Z,10.11
2023-03-27T13:16:14.009Z,10.51
2023-03-27T13:19:07.204Z,10.53
2023-03-27T13:22:08.415Z,10.27
2023-03-27T13:25:23.888Z,9.63
2023-03-27T13:28:28.315Z,9.76
2023-03-27T13:31:11.220Z,9.61
2023-03-27T13:33:47.543Z,9.57
2023-03-27T13:36:30.933Z,9.95
2023-03-27T13:39:24.081Z,9.90
2023-03-27T13:42:13.452Z,9.89
2023-03-27T13:45:00.466Z,10.10
2023-03-27T13:48:18.557Z,10.21
2023-03-27T13:51:26.579Z,10.63
2023-03-27T13:54:41.374Z,10.43
2023-03-27T13:57:25.329Z,9.95
2023-03-27T14:00:41.497Z,9.83
2023-03-27T14:04:18.565Z,9.64
2023-03-27T14:07:35.443Z,9.55
2023-03-27T14:10:24.942Z,9.76
2023-03-27T14:13:21.452Z,10.19
2023-03-27T14:16:20.191Z,10.15
2023-03-27T14:19:29.549Z,9.99
2023-03-27T14:22:04.892Z,9.71
2023-03-27T14:24:43.592Z,9.87
2023-03-27T14:27:24.182Z,10.41
2023-03-27T14:30:06.830Z,10.12
2023-03-27T14:32:36.062Z,9.74
2023-03-27T14:35:05.637Z,9.81
2023-03-27T14:37:42.046Z,9.92
2023-03-27T14:40:34.705Z,9.62
2023-03-27T14:43:08.506Z,8.97
2023-03-27T14:45:40.730Z,9.64
2023-03-27T14:48:22.251Z,9.95
2023-03-27T14:50:53.780Z,9.84
2023-03-27T14:53:28.245Z,9.90
2023-03-27T14:56:28.685Z,9.97
2023-03-27T14:59:13.898Z,10.37
2023-03-27T15:01:52.277Z,10.57
2023-03-27T15:04:21.103Z,10.19
2023-03-27T15:06:55.898Z,10.09
2023-03-27T15:09:48.146Z,10.32
2023-03-27T15:12:47.126Z,10.31
2023-03-27T15:15:38.536Z,9.98
2023-03-27T15:18:15.424Z,10.10
2023-03-27T15:20:45.114Z,10.24
2023-03-27T15:23:20.332Z,10.04
2023-03-27T15:25:57.714Z,10.20
2023-03-27T15:28:32.642Z,9.79
2023-03-27T15:31:04.979Z,9.60
2023-03-27T15:33:41.399Z,9.76
2023-03-27T15:36:26.350Z,9.47
2023-03-27T15:38:55.452Z,9.42
2023-03-27T15:41:44.057Z,9.07
2023-03-27T15:44:18.125Z,9.12
2023-03-27T15:46:55.734Z,8.98
2023-03-27T15:49:32.605Z,9.47
2023-03-27T15:52:31.996Z,8.94
2023-03-27T15:55:01.350Z,9.03
2023-03-27T15:57:30.587Z,9.13
2023-03-27T16:00:08.513Z,8.95
2023-03-27T16:02:43.262Z,9.06
2023-03-27T16:05:18.183Z,9.00
2023-03-27T16:07:48.708Z,9.05
2023-03-27T16:10:32.014Z,9.02
2023-03-27T16:13:03.066Z,9.26
2023-03-27T16:15:37.481Z,9.05
2023-03-27T16:18:19.029Z,8.90
2023-03-27T16:20:48.018Z,8.59
2023-03-27T16:23:16.597Z,8.66
2023-03-27T16:25:45.332Z,8.76
2023-03-27T16:28:17.678Z,9.03
2023-03-27T16:30:46.221Z,9.18
2023-03-27T16:33:17.898Z,9.15
2023-03-27T16:35:47.476Z,8.93
2023-03-27T16:38:16.134Z,9.11
2023-03-27T16:40:44.790Z,8.96
2023-03-27T16:43:13.438Z,9.38
2023-03-27T16:45:42.295Z,9.16
2023-03-27T16:48:13.438Z,9.22
2023-03-27T16:50:43.268Z,9.14
2023-03-27T16:53:11.663Z,8.77
2023-03-27T16:55:40.012Z,8.81
2023-03-27T16:58:08.478Z,9.01
2023-03-27T17:00:36.816Z,9.05
2023-03-27T17:03:05.428Z,9.09
2023-03-27T17:05:34.462Z,9.17
2023-03-27T17:08:07.152Z,9.09
2023-03-27T17:10:35.904Z,9.03
2023-03-27T17:13:04.251Z,8.72
2023-03-27T17:15:36.562Z,7.97
2023-03-27T17:18:05.302Z,8.55
2023-03-27T17:20:34.781Z,8.52
2023-03-27T17:23:04.527Z,8.65
2023-03-27T17:25:32.832Z,8.56
2023-03-27T17:28:01.261Z,8.33
2023-03-27T17:30:39.363Z,8.72
2023-03-27T17:33:09.631Z,8.67
2023-03-27T17:35:40.319Z,8.45
2023-03-27T17:38:10.300Z,8.29
2023-03-27T17:40:41.313Z,8.38
2023-03-27T17:43:10.398Z,8.69
2023-03-27T17:45:42.114Z,8.48
2023-03-27T17:48:11.789Z,8.36
2023-03-27T17:50:40.617Z,8.42
2023-03-27T17:53:10.525Z,8.17
2023-03-27T17:55:39.056Z,8.31
2023-03-27T17:58:09.930Z,8.05
2023-03-27T18:00:39.506Z,8.47
2023-03-27T18:03:08.908Z,8.40
2023-03-27T18:05:38.698Z,8.06
2023-03-27T18:08:10.322Z,8.38
2023-03-27T18:10:41.794Z,8.21
2023-03-27T18:13:10.178Z,8.19
2023-03-27T18:15:40.786Z,8.59
2023-03-27T18:18:09.284Z,8.45
2023-03-27T18:20:38.545Z,8.55
2023-03-27T18:23:07.356Z,8.78
2023-03-27T18:25:41.941Z,8.68
2023-03-27T18:28:10.971Z,8.68
2023-03-27T18:30:40.106Z,8.67
2023-03-27T18:33:08.801Z,8.66
2023-03-27T18:35:37.814Z,8.62
2023-03-27T18:38:07.269Z,8.73
2023-03-27T18:40:36.952Z,8.78
2023-03-27T18:43:05.576Z,8.66
2023-03-27T18:45:34.498Z,8.59
2023-03-27T18:48:02.966Z,8.55
2023-03-27T18:50:31.382Z,8.75
2023-03-27T18:52:59.804Z,8.59
2023-03-27T18:55:28.161Z,8.66
2023-03-27T18:57:58.024Z,8.42
2023-03-27T19:00:26.382Z,8.55
2023-03-27T19:02:54.779Z,8.37
2023-03-27T19:05:23.203Z,8.34
2023-03-27T19:07:53.610Z,8.51
2023-03-27T19:10:22.063Z,8.66
2023-03-27T19:13:12.052Z,8.55
2023-03-27T19:16:14.267Z,7.77
2023-03-27T19:18:49.547Z,8.48
2023-03-27T19:21:36.379Z,8.53
2023-03-27T19:24:07.866Z,8.78
2023-03-27T19:26:45.482Z,8.77
2023-03-27T19:29:15.417Z,8.74
2023-03-27T19:31:43.842Z,8.75
2023-03-27T19:34:12.194Z,8.83
2023-03-27T19:36:40.661Z,8.73
2023-03-27T19:39:09.364Z,8.83
2023-03-27T19:41:37.733Z,9.03
2023-03-27T19:44:06.790Z,8.77
2023-03-27T19:46:36.618Z,8.60
2023-03-27T19:49:05.311Z,8.64
2023-03-27T19:51:47.129Z,8.67
2023-03-27T19:54:15.832Z,8.49
2023-03-27T19:56:44.294Z,8.50
2023-03-27T19:59:20.778Z,8.29
2023-03-27T20:01:57.925Z,8.42
2023-03-27T20:04:26.475Z,8.41
2023-03-27T20:07:01.929Z,8.71
2023-03-27T20:09:30.496Z,8.76
2023-03-27T20:11:58.778Z,8.63
2023-03-27T20:14:27.153Z,8.86
2023-03-27T20:16:56.897Z,9.01
2023-03-27T20:19:27.009Z,9.08
2023-03-27T20:21:57.632Z,9.00
2023-03-27T20:24:25.937Z,9.09
2023-03-27T20:26:59.013Z,8.99
2023-03-27T20:29:27.972Z,8.94
2023-03-27T20:31:57.693Z,9.04
2023-03-27T20:34:26.037Z,8.83
2023-03-27T20:36:54.942Z,8.61
2023-03-27T20:39:47.008Z,8.57
2023-03-27T20:42:18.508Z,8.80
2023-03-27T20:44:54.908Z,8.62
2023-03-27T20:47:24.780Z,8.55
2023-03-27T20:49:53.142Z,8.50
2023-03-27T20:52:22.964Z,8.66
2023-03-27T20:54:51.673Z,8.58
2023-03-27T20:57:22.226Z,8.56
2023-03-27T20:59:51.245Z,8.44
2023-03-27T21:02:24.434Z,8.42
2023-03-27T21:04:52.938Z,8.42
2023-03-27T21:07:21.328Z,8.32
2023-03-27T21:09:49.673Z,8.18
2023-03-27T21:12:18.110Z,8.20
2023-03-27T21:14:46.555Z,8.13
2023-03-27T21:17:14.868Z,8.18
2023-03-27T21:19:44.665Z,8.10
2023-03-27T21:22:13.091Z,8.10
2023-03-27T21:24:41.929Z,8.14
2023-03-27T21:27:10.625Z,8.27
2023-03-27T21:29:39.411Z,8.24
2023-03-27T21:32:09.277Z,8.21
2023-03-27T21:34:37.765Z,7.98
2023-03-27T21:37:07.444Z,7.98
2023-03-27T21:39:35.950Z,8.01
2023-03-27T21:42:04.462Z,8.04
2023-03-27T21:44:32.954Z,8.15
2023-03-27T21:47:01.416Z,8.06
2023-03-27T21:49:30.029Z,7.96
2023-03-27T21:51:58.477Z,8.20
2023-03-27T21:54:28.221Z,8.17
2023-03-27T21:56:56.654Z,8.15
2023-03-27T21:59:27.202Z,8.17
2023-03-27T22:01:55.689Z,8.00
2023-03-27T22:04:24.419Z,8.04
2023-03-27T22:06:53.709Z,8.10
2023-03-27T22:09:22.492Z,8.08
2023-03-27T22:11:52.246Z,8.03
2023-03-27T22:14:20.576Z,8.05
2023-03-27T22:16:49.027Z,8.11
2023-03-27T22:19:17.524Z,8.12
2023-03-27T22:21:46.090Z,8.18
2023-03-27T22:24:14.489Z,8.16
2023-03-27T22:26:42.997Z,8.12
2023-03-27T22:29:12.761Z,8.07
2023-03-27T22:31:41.146Z,7.98
2023-03-27T22:34:09.718Z,7.97
2023-03-27T22:36:38.102Z,8.02
2023-03-27T22:39:06.644Z,7.92
2023-03-27T22:41:34.983Z,7.74
2023-03-27T22:44:03.307Z,7.73
2023-03-27T22:46:33.192Z,7.55
2023-03-27T22:49:01.564Z,7.41
2023-03-27T22:51:31.911Z,7.12
2023-03-27T22:54:00.693Z,7.14
2023-03-27T22:56:29.219Z,7.09
2023-03-27T22:58:57.937Z,7.05
2023-03-27T23:01:26.536Z,7.06
2023-03-27T23:03:56.500Z,7.03
2023-03-27T23:06:25.541Z,6.93
2023-03-27T23:08:54.322Z,6.83
2023-03-27T23:11:24.022Z,6.92
2023-03-27T23:13:52.342Z,6.78
2023-03-27T23:16:20.774Z,6.77
2023-03-27T23:18:49.177Z,6.73
2023-03-27T23:21:18.915Z,6.81
2023-03-27T23:23:47.600Z,6.79
2023-03-27T23:26:18.025Z,6.78
2023-03-27T23:28:46.573Z,6.93
2023-03-27T23:31:17.293Z,7.00
2023-03-27T23:33:48.147Z,6.96
2023-03-27T23:36:20.521Z,6.94
2023-03-27T23:38:49.110Z,6.92
2023-03-27T23:41:19.749Z,6.82
2023-03-27T23:43:48.103Z,6.90
2023-03-27T23:46:17.156Z,6.86
2023-03-27T23:48:46.237Z,6.82
2023-03-27T23:51:18.066Z,6.85
2023-03-27T23:53:46.652Z,6.87
2023-03-27T23:56:15.105Z,6.82
2023-03-27T23:58:43.830Z,6.92
